Time;durP1;ratioP1;P1;durP2;ratioP2;P2;SDS_P1;SDS_P2;PMS_P1;PMS_P2;Temp;Humidity;BMP_temperature;BMP_pressure;BME280_temperature;BME280_humidity;BME280_pressure;Samples;Min_cycle;Max_cycle;Signal;HPM_P1;HPM_P2
2022/06/28 00:01:35;;;;;;;5.80;4.07;;;15.30;99.90;;;;;;5016124;28;20537;-79
2022/06/28 00:04:02;;;;;;;4.67;3.80;;;15.30;99.90;;;;;;5025630;28;20535;-80
2022/06/28 00:06:30;;;;;;;5.50;3.30;;;15.30;99.90;;;;;;5017570;28;20450;-79
2022/06/28 00:08:57;;;;;;;6.50;3.97;;;15.30;99.90;;;;;;5017302;28;20455;-80
2022/06/28 00:11:24;;;;;;;7.40;4.00;;;15.30;99.90;;;;;;5016225;28;20477;-80
2022/06/28 00:13:51;;;;;;;5.33;4.20;;;15.20;99.90;;;;;;5017124;28;20498;-80
2022/06/28 00:16:18;;;;;;;6.13;3.33;;;15.20;99.90;;;;;;5017167;28;20504;-80
2022/06/28 00:18:46;;;;;;;5.50;4.00;;;15.20;99.90;;;;;;5016834;28;20441;-80
2022/06/28 00:21:13;;;;;;;5.00;3.30;;;15.10;99.90;;;;;;5016462;28;20490;-81
2022/06/28 00:23:42;;;;;;;5.20;4.20;;;15.10;99.90;;;;;;5016532;28;20582;-80
2022/06/28 00:26:10;;;;;;;5.60;3.90;;;15.10;99.90;;;;;;5023490;28;20481;-79
2022/06/28 00:28:37;;;;;;;4.60;3.60;;;15.10;99.90;;;;;;5016827;28;20525;-81
2022/06/28 00:31:04;;;;;;;4.90;3.97;;;15.00;99.90;;;;;;5016945;28;20523;-80
2022/06/28 00:33:31;;;;;;;4.90;3.80;;;15.00;99.90;;;;;;5017621;28;20938;-80
2022/06/28 00:35:58;;;;;;;3.50;3.20;;;15.00;99.90;;;;;;5016190;28;20988;-79
2022/06/28 00:38:25;;;;;;;5.03;3.70;;;15.00;99.90;;;;;;5017379;28;20487;-80
2022/06/28 00:40:54;;;;;;;7.70;3.83;;;15.00;99.90;;;;;;5017205;28;20533;-81
2022/06/28 00:43:22;;;;;;;7.43;4.50;;;15.00;99.90;;;;;;5016743;28;20490;-80
2022/06/28 00:45:49;;;;;;;4.50;3.23;;;15.00;99.90;;;;;;5017019;28;20457;-81
2022/06/28 00:48:17;;;;;;;5.53;3.67;;;15.00;99.90;;;;;;5018122;28;20541;-81
2022/06/28 00:50:44;;;;;;;6.50;3.60;;;15.00;99.90;;;;;;5018045;28;20458;-81
2022/06/28 00:53:13;;;;;;;7.37;3.47;;;15.00;99.90;;;;;;5018321;28;20523;-80
2022/06/28 00:55:41;;;;;;;5.70;4.03;;;14.90;99.90;;;;;;5018391;28;20453;-82
2022/06/28 00:58:09;;;;;;;6.30;4.13;;;14.90;99.90;;;;;;5022440;28;20452;-79
2022/06/28 01:00:40;;;;;;;5.63;3.53;;;14.90;99.90;;;;;;5018511;28;20485;-81
2022/06/28 01:03:07;;;;;;;3.93;3.40;;;14.90;99.90;;;;;;5016314;28;20515;-81
2022/06/28 01:05:36;;;;;;;5.50;3.40;;;14.90;99.90;;;;;;5006905;28;20460;-80
2022/06/28 01:08:05;;;;;;;4.23;3.10;;;14.80;99.90;;;;;;5017430;28;20466;-81
2022/06/28 01:10:32;;;;;;;5.10;3.60;;;14.80;99.90;;;;;;4996822;28;20548;-81
2022/06/28 01:12:59;;;;;;;3.83;3.20;;;14.80;99.90;;;;;;4997110;28;20573;-80
2022/06/28 01:15:28;;;;;;;4.20;3.70;;;14.80;99.90;;;;;;5015063;28;20487;-81
2022/06/28 01:17:55;;;;;;;5.20;3.77;;;14.80;99.90;;;;;;5016385;28;20450;-80
2022/06/28 01:20:22;;;;;;;4.67;3.00;;;14.80;99.90;;;;;;5016481;28;20545;-81
2022/06/28 01:22:52;;;;;;;4.50;3.93;;;14.80;99.90;;;;;;5016689;28;20563;-79
2022/06/28 01:25:19;;;;;;;4.10;3.40;;;14.80;99.90;;;;;;5015704;28;20450;-80
2022/06/28 01:27:47;;;;;;;6.60;4.10;;;14.70;99.90;;;;;;5017854;28;20461;-80
2022/06/28 01:30:14;;;;;;;6.50;4.27;;;14.70;99.90;;;;;;5016621;28;20484;-81
2022/06/28 01:32:41;;;;;;;5.17;4.00;;;14.70;99.90;;;;;;5017737;28;20569;-80
2022/06/28 01:35:09;;;;;;;5.97;4.20;;;14.70;99.90;;;;;;5017343;28;20515;-79
2022/06/28 01:37:37;;;;;;;6.23;3.70;;;14.70;99.90;;;;;;5019188;28;20640;-79
2022/06/28 01:40:07;;;;;;;6.07;3.93;;;14.70;99.90;;;;;;5019205;28;20527;-78
2022/06/28 01:42:34;;;;;;;7.83;4.17;;;14.60;99.90;;;;;;5036091;28;20496;-78
2022/06/28 01:45:02;;;;;;;7.23;4.10;;;14.60;99.90;;;;;;5021179;28;20535;-79
2022/06/28 01:47:35;;;;;;;5.60;3.60;;;14.60;99.90;;;;;;5014595;28;20544;-79
2022/06/28 01:50:02;;;;;;;5.13;3.63;;;14.60;99.90;;;;;;5014739;28;20471;-81
2022/06/28 01:52:29;;;;;;;4.80;4.03;;;14.60;99.90;;;;;;5014812;28;20851;-79
2022/06/28 01:54:56;;;;;;;4.87;3.17;;;14.60;99.90;;;;;;5013136;28;20560;-80
2022/06/28 01:57:24;;;;;;;4.40;3.67;;;14.60;99.90;;;;;;5015141;28;20520;-78
2022/06/28 01:59:51;;;;;;;5.20;3.70;;;14.60;99.90;;;;;;5014762;28;20489;-78
2022/06/28 02:02:18;;;;;;;5.30;4.07;;;14.60;99.90;;;;;;5016882;28;20492;-79
2022/06/28 02:04:45;;;;;;;4.97;3.77;;;14.50;99.90;;;;;;5015668;28;20534;-80
2022/06/28 02:07:12;;;;;;;6.63;3.33;;;14.50;99.90;;;;;;5017467;28;20484;-79
2022/06/28 02:09:39;;;;;;;6.87;4.10;;;14.50;99.90;;;;;;5017218;28;20491;-79
2022/06/28 02:12:06;;;;;;;5.20;3.67;;;14.50;99.90;;;;;;5017042;28;20565;-80
2022/06/28 02:14:34;;;;;;;6.00;3.70;;;14.50;99.90;;;;;;5015152;28;21123;-81
2022/06/28 02:17:01;;;;;;;5.07;3.73;;;14.50;99.90;;;;;;4997458;28;20459;-80
2022/06/28 02:19:28;;;;;;;5.70;3.63;;;14.50;99.90;;;;;;5005862;28;20506;-81
2022/06/28 02:21:55;;;;;;;4.50;3.50;;;14.50;99.90;;;;;;5016473;28;20484;-81
2022/06/28 02:24:22;;;;;;;5.30;3.60;;;14.50;99.90;;;;;;5015203;28;20450;-78
2022/06/28 02:26:48;;;;;;;6.73;4.47;;;14.40;99.90;;;;;;5016294;28;20529;-79
2022/06/28 02:29:15;;;;;;;7.47;4.33;;;14.40;99.90;;;;;;5016596;28;20454;-81
2022/06/28 02:31:43;;;;;;;5.23;3.80;;;14.40;99.90;;;;;;5016505;28;20479;-81
2022/06/28 02:40:21;;;;;;;5.20;3.90;;;14.40;99.90;;;;;;5016380;28;20513;-79
2022/06/28 02:42:25;;;;;;;4.23;3.20;;;14.40;99.90;;;;;;4999745;28;20995;-80
2022/06/28 02:44:52;;;;;;;7.50;3.57;;;14.40;99.90;;;;;;5019217;28;20465;-79
2022/06/28 02:47:20;;;;;;;5.00;3.27;;;14.40;99.90;;;;;;5020284;28;20482;-81
2022/06/28 02:49:47;;;;;;;8.70;4.37;;;14.40;99.90;;;;;;5018587;28;20513;-79
2022/06/28 02:52:14;;;;;;;7.70;4.90;;;14.40;99.90;;;;;;5019350;28;21048;-80
2022/06/28 02:54:41;;;;;;;5.57;3.80;;;14.40;99.90;;;;;;5018427;28;20512;-81
2022/06/28 02:57:08;;;;;;;5.00;3.90;;;14.40;99.90;;;;;;5020550;28;20472;-81
2022/06/28 02:59:35;;;;;;;4.77;3.60;;;14.30;99.90;;;;;;5019959;28;20537;-78
2022/06/28 03:02:01;;;;;;;6.87;3.50;;;14.30;99.90;;;;;;5019445;28;20573;-79
2022/06/28 03:04:30;;;;;;;6.60;4.00;;;14.30;99.90;;;;;;5017218;28;20570;-80
2022/06/28 03:06:56;;;;;;;5.00;3.77;;;14.30;99.90;;;;;;5016492;28;20489;-80
2022/06/28 03:09:23;;;;;;;5.20;3.53;;;14.30;99.90;;;;;;5017050;28;20518;-79
2022/06/28 03:11:50;;;;;;;7.13;3.30;;;14.30;99.90;;;;;;5016925;28;20473;-80
2022/06/28 03:14:17;;;;;;;5.77;3.90;;;14.30;99.90;;;;;;5017424;28;20491;-79
2022/06/28 03:16:44;;;;;;;9.03;4.70;;;14.30;99.90;;;;;;5016550;28;20999;-78
2022/06/28 03:19:11;;;;;;;4.90;3.40;;;14.30;99.90;;;;;;5016647;28;20454;-76
2022/06/28 03:21:39;;;;;;;5.43;3.97;;;14.30;99.90;;;;;;5016786;28;21007;-79
2022/06/28 03:24:06;;;;;;;5.13;4.37;;;14.30;99.90;;;;;;5016909;28;20923;-80
2022/06/28 03:26:33;;;;;;;5.20;4.57;;;14.20;99.90;;;;;;5016656;28;20566;-79
2022/06/28 03:29:00;;;;;;;4.30;3.80;;;14.20;99.90;;;;;;5017440;28;20462;-80
2022/06/28 03:31:27;;;;;;;5.70;4.10;;;14.20;99.90;;;;;;5016760;28;20457;-80
2022/06/28 03:33:53;;;;;;;5.50;4.13;;;14.20;99.90;;;;;;5017618;28;20580;-82
2022/06/28 03:36:20;;;;;;;6.27;4.27;;;14.20;99.90;;;;;;5017009;28;20523;-80
2022/06/28 03:38:49;;;;;;;5.23;3.50;;;14.20;99.90;;;;;;5017434;28;20470;-80
2022/06/28 03:41:22;;;;;;;4.40;3.53;;;14.20;99.90;;;;;;5017248;28;20472;-80
2022/06/28 03:43:49;;;;;;;5.73;4.07;;;14.20;99.90;;;;;;5012090;28;20459;-79
2022/06/28 03:46:16;;;;;;;7.57;3.43;;;14.20;99.90;;;;;;5016310;28;20536;-81
2022/06/28 03:48:43;;;;;;;6.00;4.30;;;14.20;99.90;;;;;;4996944;28;20493;-81
2022/06/28 03:51:10;;;;;;;8.37;4.30;;;14.20;99.90;;;;;;4997984;28;20490;-81
2022/06/28 03:53:37;;;;;;;6.20;4.80;;;14.20;99.90;;;;;;5016329;28;20932;-81
2022/06/28 03:56:06;;;;;;;9.40;5.50;;;14.20;99.90;;;;;;5016740;28;20492;-82
2022/06/28 03:58:33;;;;;;;5.43;2.20;;;14.20;99.90;;;;;;5018138;28;20508;-82
2022/06/28 04:01:00;;;;;;;2.70;1.83;;;14.30;99.90;;;;;;5019327;28;20495;-82
2022/06/28 04:03:27;;;;;;;4.33;3.70;;;15.00;99.90;;;;;;5018874;28;20566;-82
2022/06/28 04:05:54;;;;;;;4.57;4.17;;;15.40;99.90;;;;;;5018849;28;20533;-83
2022/06/28 04:08:20;;;;;;;6.03;3.87;;;15.70;99.90;;;;;;5019088;28;20894;-83
2022/06/28 04:10:48;;;;;;;4.43;3.00;;;15.90;99.90;;;;;;5026593;28;20840;-84
2022/06/28 04:13:16;;;;;;;5.90;2.80;;;16.10;99.90;;;;;;5019421;28;20477;-81
2022/06/28 04:15:43;;;;;;;5.57;3.10;;;16.20;99.90;;;;;;5018664;28;20564;-80
2022/06/28 04:18:10;;;;;;;5.90;4.13;;;16.30;99.90;;;;;;5018949;28;20942;-81
2022/06/28 04:20:41;;;;;;;6.07;4.40;;;16.30;99.90;;;;;;5019023;28;20538;-80
2022/06/28 04:23:08;;;;;;;5.17;3.87;;;16.20;99.90;;;;;;5018937;28;20500;-81
2022/06/28 04:25:34;;;;;;;5.50;3.63;;;16.10;99.90;;;;;;5017803;28;20457;-81
2022/06/28 04:28:01;;;;;;;7.47;5.33;;;16.10;99.90;;;;;;5017668;28;20590;-83
2022/06/28 04:30:31;;;;;;;5.70;4.37;;;16.00;99.90;;;;;;5008807;28;20464;-83
2022/06/28 04:32:58;;;;;;;6.53;4.70;;;15.90;99.90;;;;;;5017813;28;20469;-82
2022/06/28 04:35:25;;;;;;;5.80;4.20;;;15.80;99.90;;;;;;5018203;28;20481;-82
2022/06/28 04:37:51;;;;;;;4.80;4.30;;;15.80;99.90;;;;;;5018949;28;20555;-81
2022/06/28 04:40:18;;;;;;;5.10;3.87;;;15.80;99.90;;;;;;5018676;28;20479;-82
2022/06/28 04:42:45;;;;;;;6.43;5.07;;;15.80;99.90;;;;;;5018637;28;20556;-82
2022/06/28 04:45:12;;;;;;;6.07;4.50;;;15.80;99.90;;;;;;5018989;28;20454;-82
2022/06/28 04:47:42;;;;;;;8.03;5.50;;;15.90;99.90;;;;;;5018912;28;20459;-82
2022/06/28 04:50:10;;;;;;;12.40;5.00;;;15.80;99.90;;;;;;5019458;28;20474;-83
2022/06/28 04:52:37;;;;;;;6.30;5.17;;;15.90;99.90;;;;;;5018947;28;20555;-82
2022/06/28 04:55:04;;;;;;;7.37;4.77;;;15.90;99.90;;;;;;5019986;28;20491;-83
2022/06/28 04:57:31;;;;;;;7.30;5.30;;;15.90;99.90;;;;;;5021093;28;20543;-83
2022/06/28 04:59:58;;;;;;;8.00;5.70;;;15.90;99.90;;;;;;5025831;28;20449;-82
2022/06/28 05:02:25;;;;;;;6.40;4.50;;;16.00;99.90;;;;;;5032084;28;20563;-82
2022/06/28 05:04:53;;;;;;;8.33;5.63;;;15.90;99.90;;;;;;5030376;28;20470;-83
2022/06/28 05:07:20;;;;;;;7.30;4.17;;;16.00;99.90;;;;;;5026729;28;20454;-81
2022/06/28 05:09:47;;;;;;;7.00;4.77;;;16.10;99.90;;;;;;5014618;28;20561;-83
2022/06/28 05:12:13;;;;;;;12.77;5.27;;;16.10;99.90;;;;;;5007003;28;20573;-82
2022/06/28 05:14:40;;;;;;;9.00;4.17;;;16.20;99.90;;;;;;5013183;28;20486;-81
2022/06/28 05:17:07;;;;;;;5.27;4.30;;;16.30;99.90;;;;;;5015510;28;20479;-82
2022/06/28 05:19:40;;;;;;;4.80;3.53;;;16.30;99.90;;;;;;5015891;28;20461;-83
2022/06/28 05:22:09;;;;;;;6.27;5.17;;;16.30;99.90;;;;;;5011861;28;20560;-81
2022/06/28 05:24:35;;;;;;;7.07;4.27;;;16.40;99.90;;;;;;5023407;28;20541;-82
2022/06/28 05:27:03;;;;;;;11.33;5.70;;;16.40;99.90;;;;;;5022864;28;20476;-82
2022/06/28 05:29:30;;;;;;;5.83;4.50;;;16.40;99.90;;;;;;5014015;28;20513;-83
2022/06/28 05:31:57;;;;;;;5.00;3.40;;;16.40;99.90;;;;;;5013585;28;20479;-83
2022/06/28 05:34:24;;;;;;;4.57;3.67;;;16.50;99.90;;;;;;5020858;28;20535;-82
2022/06/28 05:36:51;;;;;;;6.97;4.27;;;16.50;99.90;;;;;;5023804;28;20465;-83
2022/06/28 05:39:19;;;;;;;5.67;3.43;;;16.60;99.90;;;;;;5022923;28;20556;-82
2022/06/28 05:41:46;;;;;;;5.70;3.10;;;16.60;99.90;;;;;;5025472;28;20551;-82
2022/06/28 05:44:16;;;;;;;5.93;3.70;;;16.70;99.90;;;;;;5021264;28;20532;-84
2022/06/28 05:46:43;;;;;;;7.60;4.10;;;16.70;99.90;;;;;;5024416;28;20454;-81
2022/06/28 05:49:11;;;;;;;4.27;3.33;;;16.80;99.90;;;;;;5013480;28;20942;-84
2022/06/28 05:51:38;;;;;;;4.30;3.07;;;16.80;99.90;;;;;;5014363;28;20468;-84
2022/06/28 05:54:05;;;;;;;4.73;3.00;;;16.80;99.90;;;;;;5014430;28;21023;-84
2022/06/28 05:56:35;;;;;;;5.13;3.20;;;16.90;99.90;;;;;;4999565;28;20513;-83
2022/06/28 05:59:04;;;;;;;4.20;2.70;;;16.90;99.90;;;;;;5024840;28;20464;-83
2022/06/28 06:01:31;;;;;;;5.40;3.20;;;17.00;99.90;;;;;;5019558;28;20546;-84
2022/06/28 06:03:58;;;;;;;6.07;2.60;;;17.00;99.90;;;;;;5013261;28;20491;-82
2022/06/28 06:06:25;;;;;;;3.67;2.80;;;17.10;99.90;;;;;;5013275;28;20544;-82
2022/06/28 06:08:52;;;;;;;4.87;3.40;;;17.10;99.90;;;;;;5014362;28;20465;-83
2022/06/28 06:11:19;;;;;;;6.20;3.33;;;17.10;99.90;;;;;;5014285;28;20484;-83
2022/06/28 06:13:47;;;;;;;5.90;3.43;;;17.20;99.90;;;;;;5014220;28;20474;-84
2022/06/28 06:16:14;;;;;;;7.10;3.37;;;17.20;99.90;;;;;;5018151;28;20915;-85
2022/06/28 06:18:41;;;;;;;5.40;3.17;;;17.20;99.90;;;;;;5019348;28;20545;-84
2022/06/28 06:21:09;;;;;;;9.23;2.97;;;17.20;99.90;;;;;;5029414;28;20983;-84
2022/06/28 06:23:35;;;;;;;4.27;2.97;;;17.30;99.90;;;;;;5013510;28;20476;-84
2022/06/28 06:26:02;;;;;;;6.30;3.20;;;17.30;99.90;;;;;;5032085;28;20463;-84
2022/06/28 06:28:30;;;;;;;3.90;3.50;;;17.40;99.90;;;;;;5033311;28;21011;-84
2022/06/28 06:30:58;;;;;;;3.70;2.97;;;17.50;99.90;;;;;;5032325;28;20453;-85
2022/06/28 06:33:25;;;;;;;4.77;3.40;;;17.50;99.90;;;;;;5025978;28;20477;-85
2022/06/28 06:35:52;;;;;;;6.83;2.87;;;17.50;99.90;;;;;;5029201;28;20584;-83
2022/06/28 06:38:19;;;;;;;4.40;2.73;;;17.60;99.90;;;;;;5033446;28;20543;-84
2022/06/28 06:40:46;;;;;;;7.20;3.03;;;17.70;99.90;;;;;;5032790;28;20453;-81
2022/06/28 06:43:12;;;;;;;4.87;2.73;;;17.80;99.90;;;;;;5030439;28;21072;-83
2022/06/28 06:45:39;;;;;;;8.33;3.20;;;17.90;99.90;;;;;;5024648;28;20525;-84
2022/06/28 06:48:11;;;;;;;8.23;3.23;;;18.00;99.90;;;;;;5032429;28;20501;-83
2022/06/28 06:50:41;;;;;;;5.33;2.67;;;18.10;99.90;;;;;;5033548;28;20973;-84
2022/06/28 06:53:09;;;;;;;4.30;2.30;;;18.10;99.90;;;;;;5033805;28;20464;-83
2022/06/28 06:55:36;;;;;;;6.07;2.37;;;18.20;99.90;;;;;;5013641;28;20494;-83
2022/06/28 06:58:03;;;;;;;4.53;2.80;;;18.20;99.90;;;;;;5025246;28;20484;-82
2022/06/28 07:00:30;;;;;;;3.73;2.33;;;18.30;99.90;;;;;;5014319;28;20487;-83
2022/06/28 07:02:57;;;;;;;4.63;2.10;;;18.30;99.90;;;;;;5033658;28;20483;-85
2022/06/28 07:05:26;;;;;;;3.73;1.67;;;18.40;99.90;;;;;;5041950;28;20496;-82
2022/06/28 07:07:52;;;;;;;5.73;2.30;;;18.50;99.90;;;;;;5012604;28;20530;-82
2022/06/28 07:10:19;;;;;;;4.20;2.07;;;18.50;99.90;;;;;;5018609;28;20538;-83
2022/06/28 07:12:46;;;;;;;5.83;2.23;;;18.60;99.90;;;;;;5017670;28;20574;-83
2022/06/28 07:15:13;;;;;;;8.10;2.00;;;18.70;99.90;;;;;;5017107;28;20492;-83
2022/06/28 07:17:42;;;;;;;7.50;1.83;;;18.70;99.90;;;;;;5016281;28;20551;-83
2022/06/28 07:20:10;;;;;;;2.90;1.40;;;18.90;99.90;;;;;;5018203;28;20521;-81
2022/06/28 07:22:38;;;;;;;7.90;2.17;;;19.20;99.90;;;;;;5016712;28;20508;-85
2022/06/28 07:25:06;;;;;;;3.93;1.83;;;19.40;99.90;;;;;;5020434;28;20541;-85
2022/06/28 07:27:33;;;;;;;5.37;2.30;;;19.40;99.90;;;;;;5021114;28;20531;-84
2022/06/28 07:30:00;;;;;;;4.70;1.70;;;19.40;99.90;;;;;;5015906;28;20547;-84
2022/06/28 07:32:27;;;;;;;3.90;1.57;;;19.50;99.90;;;;;;5019719;28;20548;-82
2022/06/28 07:34:54;;;;;;;6.67;1.90;;;19.50;99.90;;;;;;5001462;28;20461;-84
2022/06/28 07:37:20;;;;;;;5.27;1.80;;;19.50;99.90;;;;;;5013390;28;20798;-85
2022/06/28 07:39:49;;;;;;;3.20;1.77;;;19.50;99.90;;;;;;5025378;28;20464;-83
2022/06/28 07:42:15;;;;;;;5.57;1.60;;;19.50;99.90;;;;;;5008601;28;20511;-83
2022/06/28 07:44:42;;;;;;;3.40;1.63;;;19.60;99.90;;;;;;5014282;28;20537;-85
2022/06/28 07:47:09;;;;;;;6.03;2.00;;;19.60;99.90;;;;;;5017739;28;20510;-82
2022/06/28 07:52:36;;;;;;;4.70;1.70;;;19.80;99.90;;;;;;5019499;28;20513;-84
2022/06/28 07:55:06;;;;;;;4.33;1.60;;;19.90;99.90;;;;;;5018473;28;21012;-83
2022/06/28 07:57:33;;;;;;;5.10;1.90;;;20.00;99.90;;;;;;5015951;28;20518;-83
2022/06/28 08:00:03;;;;;;;3.00;1.37;;;20.10;99.90;;;;;;5019087;28;20882;-83
2022/06/28 08:02:30;;;;;;;5.43;1.73;;;20.10;99.90;;;;;;5017290;28;20513;-83
2022/06/28 08:04:57;;;;;;;11.77;2.00;;;20.20;99.90;;;;;;5017679;28;20523;-82
2022/06/28 08:07:24;;;;;;;3.97;2.30;;;20.40;99.90;;;;;;5017830;28;20965;-84
2022/06/28 08:09:51;;;;;;;3.57;1.50;;;20.30;99.90;;;;;;5022882;28;20481;-83
2022/06/28 08:12:19;;;;;;;5.13;1.80;;;20.40;99.90;;;;;;5022542;28;20555;-83
2022/06/28 08:14:46;;;;;;;7.83;2.00;;;20.50;99.90;;;;;;5034930;28;20518;-83
2022/06/28 08:17:13;;;;;;;6.27;1.60;;;20.60;99.90;;;;;;5016949;28;20534;-83
2022/06/28 08:19:41;;;;;;;3.33;1.40;;;20.60;99.90;;;;;;5023737;28;20486;-84
2022/06/28 08:22:10;;;;;;;4.03;1.40;;;20.60;99.90;;;;;;5032168;28;20503;-86
2022/06/28 08:24:37;;;;;;;5.83;1.50;;;20.80;99.90;;;;;;5049521;28;20464;-82
2022/06/28 08:27:05;;;;;;;3.40;1.30;;;20.90;99.90;;;;;;5031229;28;20434;-89
2022/06/28 08:29:34;;;;;;;3.30;1.20;;;21.10;99.90;;;;;;5029564;28;20454;-81
2022/06/28 08:32:01;;;;;;;2.47;1.13;;;21.20;99.90;;;;;;5010023;28;20491;-82
2022/06/28 08:34:28;;;;;;;6.37;1.20;;;21.20;99.90;;;;;;5020918;28;20513;-83
2022/06/28 08:36:55;;;;;;;2.40;1.10;;;21.40;99.90;;;;;;5028246;28;20575;-83
2022/06/28 08:39:22;;;;;;;5.10;1.60;;;21.60;99.90;;;;;;5034684;28;20480;-82
2022/06/28 08:41:49;;;;;;;2.57;1.30;;;21.90;99.90;;;;;;5024165;28;20506;-81
2022/06/28 08:44:17;;;;;;;2.63;1.07;;;21.90;99.90;;;;;;5029067;28;20889;-82
2022/06/28 08:46:46;;;;;;;4.63;1.00;;;22.20;99.90;;;;;;5034546;28;20479;-81
2022/06/28 08:49:15;;;;;;;2.40;1.10;;;22.50;99.90;;;;;;5024937;28;20532;-81
2022/06/28 08:51:45;;;;;;;3.67;1.07;;;22.80;99.90;;;;;;5026410;28;20448;-81
2022/06/28 08:54:14;;;;;;;3.10;1.00;;;22.80;99.90;;;;;;5016166;28;20473;-83
2022/06/28 08:56:41;;;;;;;5.20;1.40;;;23.00;99.90;;;;;;5017190;28;20577;-82
2022/06/28 08:59:08;;;;;;;2.73;1.10;;;23.20;99.90;;;;;;5017965;28;20525;-81
2022/06/28 09:01:35;;;;;;;3.30;1.13;;;23.50;99.90;;;;;;5018069;28;20465;-83
2022/06/28 09:04:05;;;;;;;4.10;1.10;;;23.60;99.90;;;;;;5019523;28;20481;-83
2022/06/28 09:06:32;;;;;;;2.77;1.20;;;23.80;99.90;;;;;;5039913;28;20441;-80
2022/06/28 09:08:59;;;;;;;3.60;1.00;;;23.90;99.90;;;;;;5027778;28;20540;-82
2022/06/28 09:11:36;;;;;;;3.73;1.10;;;24.00;99.90;;;;;;5014434;28;21298;-77
2022/06/28 09:14:03;;;;;;;2.33;1.03;;;24.10;99.90;;;;;;5012572;28;20469;-79
2022/06/28 09:16:30;;;;;;;4.80;1.60;;;24.20;99.90;;;;;;5023897;28;20583;-81
2022/06/28 09:18:58;;;;;;;2.33;1.00;;;24.40;99.90;;;;;;5015130;28;20478;-82
2022/06/28 09:21:27;;;;;;;2.47;1.20;;;24.60;99.90;;;;;;5011578;28;20469;-84
2022/06/28 09:23:54;;;;;;;3.43;1.50;;;24.70;99.90;;;;;;5017876;28;20823;-83
2022/06/28 09:26:21;;;;;;;2.50;1.07;;;24.90;99.90;;;;;;5019651;28;20556;-81
2022/06/28 09:28:50;;;;;;;6.27;1.20;;;24.90;99.90;;;;;;5015528;28;20540;-81
2022/06/28 09:31:19;;;;;;;4.33;1.07;;;25.00;99.90;;;;;;5025492;28;20472;-82
2022/06/28 09:33:48;;;;;;;3.53;1.00;;;25.20;99.90;;;;;;5015595;28;20474;-83
2022/06/28 09:36:18;;;;;;;4.50;1.00;;;25.20;99.90;;;;;;5014378;28;20592;-83
2022/06/28 09:38:46;;;;;;;3.57;0.80;;;25.20;99.90;;;;;;5015728;28;20958;-81
2022/06/28 09:41:25;;;;;;;2.60;1.30;;;25.40;99.90;;;;;;5013856;28;20453;-82
2022/06/28 09:43:57;;;;;;;3.47;1.13;;;24.90;99.90;;;;;;5015613;28;20460;-82
2022/06/28 09:46:26;;;;;;;3.83;1.03;;;24.70;99.90;;;;;;5025868;28;20472;-82
2022/06/28 09:49:00;;;;;;;4.30;1.10;;;24.70;99.90;;;;;;5016076;28;20483;-83
2022/06/28 09:51:29;;;;;;;3.73;1.00;;;24.90;99.90;;;;;;5023799;28;20541;-83
2022/06/28 09:53:59;;;;;;;3.33;1.03;;;25.50;99.90;;;;;;5026341;28;20465;-81
2022/06/28 09:56:28;;;;;;;3.60;1.27;;;25.60;99.90;;;;;;5018055;28;20540;-82
2022/06/28 09:58:55;;;;;;;3.50;1.27;;;26.00;99.90;;;;;;5025292;28;20821;-83
2022/06/28 10:01:22;;;;;;;3.27;0.90;;;26.30;99.90;;;;;;5030661;28;20808;-82
2022/06/28 10:03:50;;;;;;;3.93;1.20;;;26.40;99.90;;;;;;5016046;28;20494;-83
2022/06/28 10:06:18;;;;;;;3.00;1.10;;;26.80;99.90;;;;;;5015500;28;20485;-83
2022/06/28 10:08:46;;;;;;;2.70;1.13;;;27.00;99.90;;;;;;5015463;28;20461;-83
2022/06/28 10:11:15;;;;;;;4.17;1.30;;;27.20;99.90;;;;;;5014821;28;20492;-83
2022/06/28 10:16:41;;;;;;;3.10;1.13;;;27.10;99.90;;;;;;5016283;28;20967;-82
2022/06/28 10:19:08;;;;;;;2.70;1.13;;;26.90;99.90;;;;;;5027593;28;20515;-83
2022/06/28 10:21:47;;;;;;;4.53;1.10;;;26.50;99.90;;;;;;5012505;28;20458;-84
2022/06/28 10:24:14;;;;;;;3.57;1.20;;;26.00;99.90;;;;;;5025036;28;20496;-84
2022/06/28 10:26:45;;;;;;;3.60;1.20;;;26.00;99.90;;;;;;5021279;28;20449;-83
2022/06/28 10:29:12;;;;;;;2.77;1.10;;;26.10;99.90;;;;;;5021685;28;20543;-84
2022/06/28 10:31:41;;;;;;;5.03;1.20;;;26.50;99.90;;;;;;5021664;28;20453;-83
2022/06/28 10:34:10;;;;;;;3.07;1.57;;;26.90;99.90;;;;;;5015282;28;20446;-82
2022/06/28 10:36:49;;;;;;;2.93;0.97;;;27.30;99.90;;;;;;5015135;28;20488;-84
2022/06/28 10:39:22;;;;;;;4.90;1.10;;;27.80;99.90;;;;;;5015879;28;20449;-83
2022/06/28 10:41:51;;;;;;;4.33;1.40;;;28.00;99.90;;;;;;5010387;28;20505;-83
2022/06/28 10:44:20;;;;;;;2.67;0.73;;;28.40;99.90;;;;;;5008290;28;20966;-84
2022/06/28 10:46:53;;;;;;;3.23;1.20;;;28.40;99.90;;;;;;5017596;28;20453;-84
2022/06/28 10:49:21;;;;;;;2.43;0.90;;;28.40;99.90;;;;;;5016492;28;20449;-85
2022/06/28 10:52:13;;;;;;;3.93;1.10;;;28.70;99.90;;;;;;5017157;28;20470;-83
2022/06/28 10:54:42;;;;;;;2.43;0.93;;;28.80;99.90;;;;;;5015048;28;20442;-83
2022/06/28 10:57:24;;;;;;;2.60;0.97;;;28.80;99.70;;;;;;5020154;28;20514;-86
2022/06/28 10:59:52;;;;;;;3.73;1.23;;;28.40;98.90;;;;;;5021584;28;20521;-83
2022/06/28 11:02:19;;;;;;;3.20;1.27;;;27.90;98.80;;;;;;5022585;28;20505;-85
2022/06/28 11:04:48;;;;;;;2.30;0.70;;;27.90;99.90;;;;;;5020737;28;20533;-84
2022/06/28 11:07:25;;;;;;;2.10;1.00;;;28.20;99.90;;;;;;5024583;28;20449;-83
2022/06/28 11:10:09;;;;;;;3.53;1.17;;;28.50;97.00;;;;;;5029519;28;20477;-81
2022/06/28 11:12:40;;;;;;;3.07;1.13;;;28.60;97.20;;;;;;5017701;28;20516;-81
2022/06/28 11:15:09;;;;;;;2.77;1.00;;;28.90;99.40;;;;;;5022078;28;20445;-82
2022/06/28 11:17:38;;;;;;;2.90;1.03;;;29.20;99.90;;;;;;5026334;28;20486;-82
2022/06/28 11:20:08;;;;;;;2.13;0.83;;;29.50;98.50;;;;;;5029321;28;20448;-81
2022/06/28 11:22:40;;;;;;;4.73;1.33;;;29.80;92.10;;;;;;5037153;28;20639;-82
2022/06/28 11:25:09;;;;;;;1.83;0.80;;;29.80;93.50;;;;;;5027400;28;20468;-80
2022/06/28 11:27:42;;;;;;;3.60;1.20;;;29.80;94.00;;;;;;5026850;28;20519;-80
2022/06/28 11:30:16;;;;;;;3.80;1.10;;;29.90;92.50;;;;;;5022646;28;20444;-82
2022/06/28 11:32:44;;;;;;;2.30;1.13;;;30.10;92.80;;;;;;5020354;28;20476;-82
2022/06/28 11:35:13;;;;;;;4.50;1.20;;;30.30;94.10;;;;;;5018646;28;20455;-81
2022/06/28 11:37:49;;;;;;;3.80;1.43;;;30.50;92.40;;;;;;5022791;28;20605;-82
2022/06/28 11:40:16;;;;;;;2.90;1.30;;;30.70;92.80;;;;;;5037573;28;20476;-82
2022/06/28 11:42:45;;;;;;;2.10;0.87;;;30.60;90.20;;;;;;5020409;28;20477;-83
2022/06/28 11:45:13;;;;;;;3.07;1.03;;;30.40;88.10;;;;;;5018349;28;20533;-82
2022/06/28 11:47:43;;;;;;;2.17;0.90;;;29.80;89.20;;;;;;5034951;28;20450;-81
2022/06/28 11:50:16;;;;;;;2.40;1.03;;;29.00;88.50;;;;;;5040582;28;20544;-79
2022/06/28 11:52:51;;;;;;;4.60;1.13;;;28.50;85.50;;;;;;5028703;28;20513;-79
2022/06/28 11:55:20;;;;;;;2.10;1.00;;;28.30;91.00;;;;;;5018288;28;20477;-81
2022/06/28 11:58:14;;;;;;;3.60;1.00;;;28.30;91.40;;;;;;5026638;28;20575;-83
2022/06/28 12:00:41;;;;;;;2.83;0.93;;;27.80;90.80;;;;;;5038839;28;20477;-82
2022/06/28 12:03:08;;;;;;;4.00;1.10;;;27.90;96.00;;;;;;5027640;28;20523;-83
2022/06/28 12:05:36;;;;;;;5.87;1.00;;;28.60;95.40;;;;;;5028085;28;20461;-86
2022/06/28 12:08:05;;;;;;;4.53;1.10;;;29.20;95.40;;;;;;5022578;28;20452;-80
2022/06/28 12:10:34;;;;;;;2.20;1.07;;;29.60;91.60;;;;;;5021230;28;20545;-81
2022/06/28 12:13:12;;;;;;;2.63;0.97;;;30.10;94.20;;;;;;5025252;28;20507;-81
2022/06/28 12:15:41;;;;;;;2.87;1.20;;;30.40;90.00;;;;;;5032406;28;20456;-80
2022/06/28 12:18:09;;;;;;;3.80;1.00;;;30.60;93.70;;;;;;5035562;28;20579;-79
2022/06/28 12:20:37;;;;;;;2.10;0.87;;;30.80;82.20;;;;;;5025289;28;20457;-80
2022/06/28 12:23:06;;;;;;;2.87;0.90;;;30.80;83.70;;;;;;5019634;28;20512;-81
2022/06/28 12:25:33;;;;;;;3.27;1.03;;;31.00;83.60;;;;;;5021484;28;20485;-81
2022/06/28 12:28:01;;;;;;;2.77;0.90;;;31.10;81.20;;;;;;5022538;28;20992;-82
2022/06/28 12:30:29;;;;;;;3.33;1.13;;;30.70;78.70;;;;;;5016236;28;20492;-83
2022/06/28 12:32:58;;;;;;;4.53;1.43;;;30.80;80.40;;;;;;5024240;28;20563;-83
2022/06/28 12:35:25;;;;;;;2.63;1.10;;;31.10;84.60;;;;;;5015164;28;20548;-84
2022/06/28 12:37:52;;;;;;;2.90;1.00;;;31.40;84.90;;;;;;5019053;28;20518;-83
2022/06/28 12:40:21;;;;;;;3.00;1.10;;;31.80;81.80;;;;;;5017010;28;20453;-83
2022/06/28 12:42:48;;;;;;;2.60;1.00;;;31.80;83.40;;;;;;5015075;28;20868;-82
2022/06/28 12:45:15;;;;;;;2.70;1.00;;;31.80;78.30;;;;;;5015528;28;21078;-84
2022/06/28 12:47:42;;;;;;;3.27;1.17;;;31.90;83.00;;;;;;5015207;28;20471;-86
2022/06/28 12:50:14;;;;;;;2.30;0.93;;;31.80;76.20;;;;;;5018273;28;20819;-82
2022/06/28 12:52:42;;;;;;;3.40;1.37;;;31.70;79.60;;;;;;5033174;28;20484;-84
2022/06/28 12:55:11;;;;;;;2.43;0.80;;;31.80;75.20;;;;;;5028182;28;20469;-83
2022/06/28 12:57:38;;;;;;;2.57;0.90;;;32.00;80.90;;;;;;5021083;28;20581;-86
2022/06/28 13:00:08;;;;;;;1.80;0.70;;;31.60;73.90;;;;;;5034439;28;20437;-82
2022/06/28 13:02:34;;;;;;;4.33;1.10;;;31.10;80.70;;;;;;5038559;28;21023;-85